createdAt,value
2023-05-04T00:02:13.302Z,102673.16
2023-05-04T00:04:42.766Z,102672.25
2023-05-04T00:07:12.235Z,102672.25
2023-05-04T00:09:40.273Z,102667.84
2023-05-04T00:12:08.353Z,102667.81
2023-05-04T00:14:36.512Z,102667.78
2023-05-04T00:17:06.460Z,102666.88
2023-05-04T00:19:34.657Z,102667.72
2023-05-04T00:22:02.570Z,102668.63
2023-05-04T00:24:31.823Z,102663.44
2023-05-04T00:26:59.884Z,102663.38
2023-05-04T00:29:27.811Z,102663.34
2023-05-04T00:31:55.784Z,102665.13
2023-05-04T00:34:24.187Z,102665.06
2023-05-04T00:36:52.059Z,102661.47
2023-05-04T00:39:20.098Z,102653.63
2023-05-04T00:41:49.312Z,102654.38
2023-05-04T00:44:17.206Z,102653.38
2023-05-04T00:46:45.370Z,102653.34
2023-05-04T00:49:13.760Z,102644.63
2023-05-04T00:51:41.967Z,102642.03
2023-05-04T00:54:10.501Z,102641.94
2023-05-04T00:56:42.113Z,102639.31
2023-05-04T00:59:11.388Z,102642.69
2023-05-04T01:01:39.376Z,102637.50
2023-05-04T01:04:07.750Z,102639.19
2023-05-04T01:06:43.151Z,102634.84
2023-05-04T01:09:17.204Z,102632.22
2023-05-04T01:11:49.917Z,102627.84
2023-05-04T01:14:21.832Z,102631.25
2023-05-04T01:16:51.428Z,102620.81
2023-05-04T01:19:19.385Z,102617.34
2023-05-04T01:21:48.944Z,102607.00
2023-05-04T01:24:16.975Z,102612.97
2023-05-04T01:26:47.341Z,102611.25
2023-05-04T01:29:18.005Z,102615.53
2023-05-04T01:31:47.139Z,102611.16
2023-05-04T01:34:15.934Z,102616.28
2023-05-04T01:36:45.556Z,102603.38
2023-05-04T01:39:14.890Z,102602.50
2023-05-04T01:41:42.834Z,102606.69
2023-05-04T01:44:11.177Z,102598.88
2023-05-04T01:46:39.208Z,102599.75
2023-05-04T01:49:08.060Z,102606.56
2023-05-04T01:51:36.035Z,102591.91
2023-05-04T01:54:03.970Z,102593.38
2023-05-04T01:56:33.627Z,102599.34
2023-05-04T01:59:01.557Z,102590.09
2023-05-04T02:01:29.496Z,102588.72
2023-05-04T02:03:57.661Z,102576.63
2023-05-04T02:06:25.876Z,102573.91
2023-05-04T02:08:53.760Z,102572.84
2023-05-04T02:11:21.725Z,102567.28
2023-05-04T02:13:51.044Z,102573.25
2023-05-04T02:16:18.967Z,102573.38
2023-05-04T02:18:47.347Z,102565.34
2023-05-04T02:21:16.818Z,102566.28
2023-05-04T02:23:45.321Z,102552.94
2023-05-04T02:26:13.239Z,102554.94
2023-05-04T02:28:41.093Z,102569.63
2023-05-04T02:31:11.738Z,102561.50
2023-05-04T02:33:39.719Z,102558.72
2023-05-04T02:36:10.277Z,102555.41
2023-05-04T02:38:38.135Z,102559.19
2023-05-04T02:41:06.352Z,102551.94
2023-05-04T02:43:34.372Z,102561.38
2023-05-04T02:46:02.462Z,102559.44
2023-05-04T02:48:31.788Z,102556.28
2023-05-04T02:51:00.221Z,102560.47
2023-05-04T02:53:28.103Z,102556.19
2023-05-04T02:55:56.076Z,102560.25
2023-05-04T02:58:23.981Z,102548.13
2023-05-04T03:00:54.742Z,102546.66
2023-05-04T03:03:22.757Z,102541.34
2023-05-04T03:05:52.007Z,102538.63
2023-05-04T03:08:20.070Z,102535.28
2023-05-04T03:10:48.072Z,102539.47
2023-05-04T03:13:16.869Z,102544.09
2023-05-04T03:15:45.001Z,102532.28
2023-05-04T03:18:13.292Z,102528.56
2023-05-04T03:20:41.214Z,102535.94
2023-05-04T03:23:13.296Z,102542.97
2023-05-04T03:25:41.184Z,102549.41
2023-05-04T03:28:09.120Z,102548.44
2023-05-04T03:30:37.352Z,102544.22
2023-05-04T03:33:05.409Z,102527.69
2023-05-04T03:35:33.822Z,102516.13
2023-05-04T03:38:06.584Z,102511.78
2023-05-04T03:40:35.897Z,102509.94
2023-05-04T03:43:04.096Z,102509.44
2023-05-04T03:45:32.546Z,102524.44
2023-05-04T03:48:00.501Z,102532.06
2023-05-04T03:50:29.149Z,102533.94
2023-05-04T03:52:57.133Z,102541.50
2023-05-04T03:55:27.931Z,102534.59
2023-05-04T03:57:57.161Z,102537.53
2023-05-04T04:00:25.133Z,102537.41
2023-05-04T04:03:02.325Z,102534.06
2023-05-04T04:05:30.918Z,102540.28
2023-05-04T04:07:58.856Z,102535.66
2023-05-04T04:10:27.947Z,102537.00
2023-05-04T04:12:57.225Z,102540.25
2023-05-04T04:15:25.158Z,102529.72
2023-05-04T04:17:53.031Z,102530.47
2023-05-04T04:20:21.063Z,102530.53
2023-05-04T04:22:48.975Z,102523.88
2023-05-04T04:25:17.042Z,102537.91
2023-05-04T04:27:44.901Z,102544.06
2023-05-04T04:30:15.444Z,102544.97
2023-05-04T04:32:43.637Z,102549.28
2023-05-04T04:35:11.472Z,102558.59
2023-05-04T04:37:39.336Z,102556.91
2023-05-04T04:40:08.919Z,102551.22
2023-05-04T04:42:36.887Z,102549.66
2023-05-04T04:45:05.981Z,102543.69
2023-05-04T04:47:36.118Z,102537.06
2023-05-04T04:50:04.749Z,102538.16
2023-05-04T04:52:36.585Z,102538.22
2023-05-04T04:55:06.640Z,102523.31
2023-05-04T04:57:35.265Z,102524.47
2023-05-04T05:02:37.861Z,102533.50
2023-05-04T05:05:07.076Z,102543.13
2023-05-04T05:07:35.304Z,102545.75
2023-05-04T05:10:03.918Z,102550.91
2023-05-04T05:12:32.139Z,102549.38
2023-05-04T05:15:00.239Z,102540.00
2023-05-04T05:17:28.161Z,102535.88
2023-05-04T05:19:57.674Z,102539.56
2023-05-04T05:22:25.679Z,102533.75
2023-05-04T05:24:54.721Z,102533.91
2023-05-04T05:27:22.596Z,102539.28
2023-05-04T05:29:51.971Z,102543.72
2023-05-04T05:32:19.874Z,102550.00
2023-05-04T05:34:48.391Z,102554.59
2023-05-04T05:37:19.915Z,102556.47
2023-05-04T05:39:47.851Z,102554.94
2023-05-04T05:42:15.771Z,102562.91
2023-05-04T05:44:43.600Z,102570.75
2023-05-04T05:47:11.430Z,102559.66
2023-05-04T05:49:39.333Z,102565.88
2023-05-04T05:52:07.235Z,102581.50
2023-05-04T05:54:36.920Z,102576.44
2023-05-04T05:57:05.007Z,102578.59
2023-05-04T05:59:32.872Z,102577.94
2023-05-04T06:02:01.057Z,102580.59
2023-05-04T06:04:29.264Z,102577.50
2023-05-04T06:06:57.229Z,102582.13
2023-05-04T06:09:27.353Z,102586.56
2023-05-04T06:11:56.543Z,102579.22
2023-05-04T06:14:24.374Z,102589.44
2023-05-04T06:16:52.349Z,102591.28
2023-05-04T06:19:20.197Z,102595.75
2023-05-04T06:21:49.972Z,102592.75
2023-05-04T06:24:17.894Z,102590.47
2023-05-04T06:26:46.368Z,102602.91
2023-05-04T06:29:18.029Z,102597.06
2023-05-04T06:31:48.281Z,102597.13
2023-05-04T06:34:18.031Z,102603.41
2023-05-04T06:36:46.217Z,102601.03
2023-05-04T06:39:14.184Z,102594.47
2023-05-04T06:41:42.317Z,102603.50
2023-05-04T06:44:10.361Z,102604.56
2023-05-04T06:46:39.688Z,102613.25
2023-05-04T06:49:07.550Z,102614.13
2023-05-04T06:51:39.029Z,102615.16
2023-05-04T06:54:07.245Z,102618.84
2023-05-04T06:56:35.104Z,102625.84
2023-05-04T06:59:03.031Z,102619.66
2023-05-04T07:01:30.895Z,102624.16
2023-05-04T07:04:00.291Z,102618.16
2023-05-04T07:06:29.495Z,102621.56
2023-05-04T07:08:57.477Z,102622.50
2023-05-04T07:11:26.060Z,102629.59
2023-05-04T07:13:53.892Z,102634.03
2023-05-04T07:16:21.905Z,102643.56
2023-05-04T07:18:49.813Z,102626.97
2023-05-04T07:23:49.901Z,102620.19
2023-05-04T07:26:18.302Z,102614.13
2023-05-04T07:28:46.765Z,102610.78
2023-05-04T07:31:15.920Z,102610.88
2023-05-04T07:33:44.230Z,102608.34
2023-05-04T07:36:12.142Z,102597.03
2023-05-04T07:38:41.415Z,102600.53
2023-05-04T07:41:09.235Z,102602.25
2023-05-04T07:43:37.465Z,102605.72
2023-05-04T07:46:05.401Z,102591.81
2023-05-04T07:48:35.143Z,102589.22
2023-05-04T07:51:03.011Z,102570.97
2023-05-04T07:53:30.907Z,102569.22
2023-05-04T07:56:08.881Z,102573.59
2023-05-04T07:58:36.817Z,102573.56
2023-05-04T08:01:05.187Z,102564.88
2023-05-04T08:03:33.061Z,102577.03
2023-05-04T08:06:01.158Z,102583.13
2023-05-04T08:08:29.027Z,102573.41
2023-05-04T08:11:08.021Z,102564.69
2023-05-04T08:13:41.475Z,102561.38
2023-05-04T08:16:10.081Z,102554.09
2023-05-04T08:18:38.401Z,102558.50
2023-05-04T08:21:06.822Z,102562.03
2023-05-04T08:23:34.912Z,102565.94
2023-05-04T08:26:03.465Z,102561.69
2023-05-04T08:28:31.808Z,102559.84
2023-05-04T08:31:03.407Z,102554.28
2023-05-04T08:33:31.971Z,102568.44
2023-05-04T08:36:02.164Z,102558.72
2023-05-04T08:38:30.285Z,102542.88
2023-05-04T08:40:58.742Z,102539.69
2023-05-04T08:43:26.870Z,102540.50
2023-05-04T08:45:54.819Z,102543.31
2023-05-04T08:48:24.324Z,102547.44
2023-05-04T08:50:52.448Z,102528.97
2023-05-04T08:53:21.368Z,102535.94
2023-05-04T08:55:50.983Z,102531.97
2023-05-04T08:58:20.291Z,102536.41
2023-05-04T09:00:48.291Z,102533.84
2023-05-04T09:03:17.150Z,102536.53
2023-05-04T09:05:47.448Z,102540.16
2023-05-04T09:08:15.772Z,102546.44
2023-05-04T09:10:43.612Z,102551.63
2023-05-04T09:13:11.507Z,102560.25
2023-05-04T09:15:39.354Z,102556.72
2023-05-04T09:18:09.927Z,102560.00
2023-05-04T09:20:49.295Z,102551.94
2023-05-04T09:23:18.059Z,102544.38
2023-05-04T09:25:50.337Z,102548.00
2023-05-04T09:28:20.062Z,102550.41
2023-05-04T09:30:51.677Z,102558.22
2023-05-04T09:33:27.321Z,102559.28
2023-05-04T09:35:57.254Z,102558.09
2023-05-04T09:38:28.406Z,102551.78
2023-05-04T09:40:56.691Z,102544.41
2023-05-04T09:43:24.669Z,102529.06
2023-05-04T09:45:53.407Z,102532.47
2023-05-04T09:48:25.677Z,102525.34
2023-05-04T09:50:54.709Z,102517.00
2023-05-04T09:53:26.031Z,102530.13
2023-05-04T09:56:05.750Z,102522.31
2023-05-04T09:58:35.746Z,102518.22
2023-05-04T10:01:03.783Z,102513.66
2023-05-04T10:03:31.898Z,102518.44
2023-05-04T10:06:00.361Z,102519.31
2023-05-04T10:08:29.871Z,102523.97
2023-05-04T10:10:58.415Z,102525.75
2023-05-04T10:13:26.946Z,102538.94
2023-05-04T10:16:10.842Z,102520.69
2023-05-04T10:19:08.994Z,102529.44
2023-05-04T10:21:47.357Z,102525.00
2023-05-04T10:24:32.466Z,102521.97
2023-05-04T10:27:06.073Z,102506.59
2023-05-04T10:29:34.428Z,102509.78
2023-05-04T10:32:02.653Z,102503.53
2023-05-04T10:34:31.864Z,102505.03
2023-05-04T10:37:01.112Z,102498.34
2023-05-04T10:39:31.634Z,102496.69
2023-05-04T10:42:01.690Z,102495.22
2023-05-04T10:44:30.174Z,102503.44
2023-05-04T10:46:59.909Z,102490.47
2023-05-04T10:49:28.266Z,102491.16
2023-05-04T10:52:10.427Z,102482.09
2023-05-04T10:54:41.251Z,102475.34
2023-05-04T10:57:10.259Z,102470.97
2023-05-04T10:59:38.908Z,102466.72
2023-05-04T11:02:07.757Z,102470.16
2023-05-04T11:04:36.420Z,102459.44
2023-05-04T11:07:06.502Z,102456.59
2023-05-04T11:09:40.795Z,102456.84
2023-05-04T11:12:10.778Z,102455.22
2023-05-04T11:14:43.138Z,102448.91
2023-05-04T11:19:49.609Z,102457.94
2023-05-04T11:22:17.729Z,102450.84
2023-05-04T11:24:48.623Z,102437.53
2023-05-04T11:27:24.346Z,102442.66
2023-05-04T11:29:59.124Z,102439.59
2023-05-04T11:32:35.671Z,102434.16
2023-05-04T11:35:04.378Z,102430.22
2023-05-04T11:37:32.686Z,102439.50
2023-05-04T11:40:02.139Z,102429.38
2023-05-04T11:42:30.314Z,102424.47
2023-05-04T11:44:58.359Z,102416.38
2023-05-04T11:47:26.711Z,102414.56
2023-05-04T11:49:54.683Z,102428.56
2023-05-04T11:52:24.250Z,102437.72
2023-05-04T11:54:57.251Z,102442.97
2023-05-04T11:57:29.099Z,102443.41
2023-05-04T11:59:56.951Z,102433.28
2023-05-04T12:02:25.865Z,102426.00
2023-05-04T12:04:54.121Z,102413.59
2023-05-04T12:07:22.271Z,102424.25
2023-05-04T12:09:50.641Z,102413.50
2023-05-04T12:12:21.378Z,102403.78
2023-05-04T12:14:51.991Z,102406.50
2023-05-04T12:17:20.420Z,102416.06
2023-05-04T12:19:51.087Z,102398.94
2023-05-04T12:22:19.285Z,102408.28
2023-05-04T12:24:47.235Z,102409.06
2023-05-04T12:27:15.497Z,102397.22
2023-05-04T12:29:43.468Z,102402.44
2023-05-04T12:32:12.925Z,102390.31
2023-05-04T12:34:40.828Z,102393.22
2023-05-04T12:37:08.691Z,102376.38
2023-05-04T12:39:36.586Z,102383.19
2023-05-04T12:42:05.423Z,102385.34
2023-05-04T12:44:33.885Z,102387.53
2023-05-04T12:47:01.765Z,102391.94
2023-05-04T12:49:30.992Z,102388.88
2023-05-04T12:51:58.858Z,102380.41
2023-05-04T12:54:26.933Z,102384.81
2023-05-04T12:56:54.809Z,102390.41
2023-05-04T12:59:23.541Z,102396.88
2023-05-04T13:01:51.608Z,102391.19
2023-05-04T13:04:19.788Z,102384.81
2023-05-04T13:06:49.054Z,102374.84
2023-05-04T13:09:17.036Z,102376.69
2023-05-04T13:11:45.288Z,102367.44
2023-05-04T13:14:15.080Z,102372.59
2023-05-04T13:16:43.014Z,102370.16
2023-05-04T13:19:10.871Z,102368.94
2023-05-04T13:21:38.728Z,102353.53
2023-05-04T13:24:08.542Z,102357.03
2023-05-04T13:26:36.352Z,102360.47
2023-05-04T13:29:05.456Z,102358.50
2023-05-04T13:31:33.421Z,102361.88
2023-05-04T13:34:01.278Z,102359.47
2023-05-04T13:36:29.198Z,102354.09
2023-05-04T13:38:57.126Z,102348.31
2023-05-04T13:41:26.407Z,102339.38
2023-05-04T13:43:54.588Z,102335.84
2023-05-04T13:46:23.101Z,102331.53
2023-05-04T13:48:51.021Z,102330.69
2023-05-04T13:51:18.934Z,102327.06
2023-05-04T13:53:46.800Z,102311.91
2023-05-04T13:56:14.959Z,102308.09
2023-05-04T13:58:44.356Z,102301.13
2023-05-04T14:01:12.295Z,102303.91
2023-05-04T14:03:40.794Z,102304.84
2023-05-04T14:06:09.525Z,102300.72
2023-05-04T14:08:38.639Z,102288.28
2023-05-04T14:11:06.559Z,102289.03
2023-05-04T14:13:34.461Z,102282.03
2023-05-04T14:16:03.997Z,102270.88
2023-05-04T14:18:32.268Z,102245.75
2023-05-04T14:21:01.084Z,102258.78
2023-05-04T14:23:29.138Z,102279.16
2023-05-04T14:25:57.244Z,102267.16
2023-05-04T14:28:26.164Z,102265.13
2023-05-04T14:30:54.164Z,102262.69
2023-05-04T14:33:23.369Z,102257.34
2023-05-04T14:35:51.486Z,102252.09
2023-05-04T14:38:19.424Z,102245.31
2023-05-04T14:40:49.553Z,102240.34
2023-05-04T14:43:17.718Z,102245.69
2023-05-04T14:45:47.164Z,102248.53
2023-05-04T14:48:15.189Z,102252.44
2023-05-04T14:50:45.314Z,102240.06
2023-05-04T14:53:13.345Z,102242.56
2023-05-04T14:55:42.048Z,102245.13
2023-05-04T14:58:10.998Z,102237.38
2023-05-04T15:00:41.291Z,102240.16
2023-05-04T15:03:09.925Z,102252.59
2023-05-04T15:05:38.026Z,102248.56
2023-05-04T15:08:07.797Z,102243.31
2023-05-04T15:10:35.648Z,102247.69
2023-05-04T15:13:03.733Z,102246.97
2023-05-04T15:15:31.637Z,102243.47
2023-05-04T15:17:59.553Z,102238.34
2023-05-04T15:20:27.666Z,102247.31
2023-05-04T15:22:55.646Z,102242.09
2023-05-04T15:25:25.244Z,102249.97
2023-05-04T15:27:53.234Z,102256.09
2023-05-04T15:30:21.552Z,102245.72
2023-05-04T15:32:49.599Z,102253.56
2023-05-04T15:35:18.761Z,102254.28
2023-05-04T15:37:47.016Z,102257.91
2023-05-04T15:40:15.214Z,102254.41
2023-05-04T15:42:44.524Z,102259.66
2023-05-04T15:45:12.462Z,102254.63
2023-05-04T15:47:40.409Z,102253.81
2023-05-04T15:50:09.079Z,102259.09
2023-05-04T15:52:37.653Z,102260.03
2023-05-04T15:55:16.832Z,102257.47
2023-05-04T15:57:54.001Z,102259.22
2023-05-04T16:00:22.882Z,102250.56
2023-05-04T16:02:50.914Z,102262.81
2023-05-04T16:05:18.879Z,102261.97
2023-05-04T16:07:46.807Z,102262.00
2023-05-04T16:10:14.697Z,102250.69
2023-05-04T16:12:42.594Z,102248.16
2023-05-04T16:15:12.586Z,102248.16
2023-05-04T16:17:41.676Z,102241.94
2023-05-04T16:20:10.631Z,102246.34
2023-05-04T16:22:39.193Z,102253.41
2023-05-04T16:25:09.529Z,102246.66
2023-05-04T16:27:39.096Z,102241.44
2023-05-04T16:30:08.795Z,102254.47
2023-05-04T16:32:40.932Z,102244.91
2023-05-04T16:35:09.490Z,102242.31
2023-05-04T16:37:38.346Z,102241.38
2023-05-04T16:40:13.549Z,102237.09
2023-05-04T16:42:41.500Z,102230.22
2023-05-04T16:45:11.339Z,102243.25
2023-05-04T16:47:41.514Z,102232.88
2023-05-04T16:50:10.344Z,102236.31
2023-05-04T16:52:38.615Z,102231.09
2023-05-04T16:55:09.244Z,102249.44
2023-05-04T16:57:39.436Z,102228.56
2023-05-04T17:00:09.302Z,102238.22
2023-05-04T17:02:37.949Z,102235.63
2023-05-04T17:05:10.344Z,102233.88
2023-05-04T17:07:39.637Z,102233.91
2023-05-04T17:10:09.127Z,102226.97
2023-05-04T17:12:37.467Z,102228.69
2023-05-04T17:15:06.367Z,102228.78
2023-05-04T17:17:34.345Z,102227.03
2023-05-04T17:20:02.477Z,102234.81
2023-05-04T17:22:31.756Z,102236.56
2023-05-04T17:25:00.220Z,102236.59
2023-05-04T17:27:30.025Z,102242.63
2023-05-04T17:29:58.056Z,102234.78
2023-05-04T17:32:26.010Z,102234.78
2023-05-04T17:34:54.692Z,102232.22
2023-05-04T17:37:22.692Z,102229.69
2023-05-04T17:39:52.071Z,102232.22
2023-05-04T17:42:20.108Z,102234.91
2023-05-04T17:44:48.039Z,102227.06
2023-05-04T17:47:16.292Z,102235.75
2023-05-04T17:49:44.323Z,102234.03
2023-05-04T17:52:13.714Z,102234.91
2023-05-04T17:54:41.838Z,102242.75
2023-05-04T17:57:11.490Z,102238.38
2023-05-04T17:59:39.720Z,102241.06
2023-05-04T18:02:09.257Z,102242.00
2023-05-04T18:04:37.642Z,102248.97
2023-05-04T18:07:05.864Z,102245.50
2023-05-04T18:09:33.998Z,102234.28
2023-05-04T18:12:03.171Z,102230.81
2023-05-04T18:14:34.800Z,102236.88
2023-05-04T18:17:02.836Z,102236.88
2023-05-04T18:19:34.297Z,102242.09
2023-05-04T18:22:02.244Z,102254.25
2023-05-04T18:24:31.954Z,102241.25
2023-05-04T18:27:01.923Z,102245.59
2023-05-04T18:29:30.782Z,102251.72
2023-05-04T18:32:01.234Z,102241.31
2023-05-04T18:34:29.478Z,102245.63
2023-05-04T18:36:57.467Z,102248.25
2023-05-04T18:39:25.491Z,102251.69
2023-05-04T18:41:53.373Z,102256.94
2023-05-04T18:44:21.501Z,102259.53
2023-05-04T18:46:49.426Z,102262.16
2023-05-04T18:49:18.672Z,102276.88
2023-05-04T18:51:46.588Z,102276.88
2023-05-04T18:54:16.154Z,102289.91
2023-05-04T18:56:44.149Z,102290.78
2023-05-04T18:59:12.196Z,102275.19
2023-05-04T19:01:40.313Z,102286.44
2023-05-04T19:04:08.451Z,102295.09
2023-05-04T19:06:38.082Z,102283.84
2023-05-04T19:09:12.620Z,102291.66
2023-05-04T19:11:41.296Z,102286.44
2023-05-04T19:14:10.216Z,102295.97
2023-05-04T19:16:38.205Z,102289.03
2023-05-04T19:19:06.728Z,102299.41
2023-05-04T19:21:34.823Z,102295.94
2023-05-04T19:24:04.378Z,102291.59
2023-05-04T19:26:32.427Z,102293.28
2023-05-04T19:29:00.447Z,102295.06
2023-05-04T19:31:28.715Z,102305.41
2023-05-04T19:33:56.732Z,102312.31
2023-05-04T19:36:24.754Z,102318.38
2023-05-04T19:38:52.904Z,102320.06
2023-05-04T19:41:22.290Z,102323.50
2023-05-04T19:43:50.409Z,102324.38
2023-05-04T19:46:18.380Z,102307.91
2023-05-04T19:48:46.293Z,102321.75
2023-05-04T19:51:14.464Z,102317.41
2023-05-04T19:53:42.658Z,102320.84
2023-05-04T19:56:10.867Z,102312.19
2023-05-04T19:58:40.282Z,102305.19
2023-05-04T20:01:08.268Z,102313.84
2023-05-04T20:03:36.428Z,102320.81
2023-05-04T20:06:04.613Z,102320.78
2023-05-04T20:08:32.578Z,102324.28
2023-05-04T20:11:00.957Z,102319.03
2023-05-04T20:13:28.872Z,102310.41
2023-05-04T20:15:58.081Z,102306.06
2023-05-04T20:18:26.105Z,102313.81
2023-05-04T20:20:54.060Z,102318.19
2023-05-04T20:23:22.059Z,102309.50
2023-05-04T20:25:49.974Z,102310.34
2023-05-04T20:28:18.025Z,102318.91
2023-05-04T20:30:46.790Z,102314.63
2023-05-04T20:33:16.093Z,102311.19
2023-05-04T20:35:45.217Z,102305.09
2023-05-04T20:38:13.613Z,102303.34
2023-05-04T20:40:41.781Z,102317.19
2023-05-04T20:43:09.665Z,102315.41
2023-05-04T20:45:37.561Z,102318.84
2023-05-04T20:48:06.267Z,102312.81
2023-05-04T20:50:36.018Z,102310.19
2023-05-04T20:53:04.333Z,102309.31
2023-05-04T20:55:32.322Z,102311.88
2023-05-04T20:58:00.216Z,102305.88
2023-05-04T21:00:28.163Z,102311.06
2023-05-04T21:02:56.480Z,102297.22
2023-05-04T21:05:24.564Z,102307.56
2023-05-04T21:07:53.885Z,102304.09
2023-05-04T21:10:22.396Z,102313.59
2023-05-04T21:12:50.423Z,102302.34
2023-05-04T21:15:18.551Z,102301.50
2023-05-04T21:17:47.067Z,102297.16
2023-05-04T21:20:15.048Z,102288.50
2023-05-04T21:22:43.040Z,102299.69
2023-05-04T21:25:12.315Z,102297.97
2023-05-04T21:27:41.580Z,102290.25
2023-05-04T21:30:11.413Z,102290.19
2023-05-04T21:32:39.311Z,102279.81
2023-05-04T21:35:08.102Z,102285.88
2023-05-04T21:37:35.977Z,102280.66
2023-05-04T21:40:04.003Z,102283.25
2023-05-04T21:42:33.339Z,102279.78
2023-05-04T21:45:01.393Z,102282.41
2023-05-04T21:47:29.532Z,102283.28
2023-05-04T21:49:57.476Z,102280.66
2023-05-04T21:52:25.423Z,102281.53
2023-05-04T21:54:53.311Z,102282.38
2023-05-04T21:57:21.454Z,102277.16
2023-05-04T21:59:51.994Z,102272.00
2023-05-04T22:02:19.863Z,102271.09
2023-05-04T22:04:47.902Z,102268.53
2023-05-04T22:07:15.916Z,102276.28
2023-05-04T22:09:43.871Z,102265.06
2023-05-04T22:12:11.776Z,102263.25
2023-05-04T22:14:41.166Z,102270.22
2023-05-04T22:17:11.746Z,102258.97
2023-05-04T22:19:39.600Z,102258.13
2023-05-04T22:22:07.533Z,102270.22
2023-05-04T22:24:35.732Z,102264.13
2023-05-04T22:27:03.683Z,102257.19
2023-05-04T22:29:34.743Z,102253.75
2023-05-04T22:32:02.649Z,102247.69
2023-05-04T22:34:32.164Z,102256.28
2023-05-04T22:37:00.097Z,102248.53
2023-05-04T22:39:28.152Z,102252.81
2023-05-04T22:41:56.250Z,102243.34
2023-05-04T22:44:24.095Z,102247.66
2023-05-04T22:46:51.962Z,102242.41
2023-05-04T22:49:19.946Z,102235.44
2023-05-04T22:51:49.226Z,102209.38
2023-05-04T22:54:17.069Z,102206.75
2023-05-04T22:56:44.920Z,102193.81
2023-05-04T22:59:12.775Z,102187.81
2023-05-04T23:01:43.297Z,102188.66
2023-05-04T23:04:11.730Z,102178.25
2023-05-04T23:06:39.724Z,102179.03
2023-05-04T23:09:08.962Z,102155.75
2023-05-04T23:11:36.872Z,102157.47
2023-05-04T23:14:04.755Z,102154.94
2023-05-04T23:16:32.837Z,102161.78
2023-05-04T23:19:00.726Z,102144.53
2023-05-04T23:21:28.611Z,102147.03
2023-05-04T23:23:56.480Z,102130.63
2023-05-04T23:26:25.809Z,102125.44
2023-05-04T23:28:53.752Z,102101.28
2023-05-04T23:31:21.745Z,102107.31
2023-05-04T23:33:50.002Z,102106.53
2023-05-04T23:36:17.899Z,102099.53
2023-05-04T23:38:45.823Z,102099.50
2023-05-04T23:41:14.848Z,102090.03
2023-05-04T23:43:44.061Z,102091.78
2023-05-04T23:46:12.037Z,102082.28
2023-05-04T23:48:39.955Z,102085.75
2023-05-04T23:51:08.952Z,102070.22
2023-05-04T23:53:37.148Z,102067.69
2023-05-04T23:56:06.322Z,102070.22
2023-05-04T23:58:35.159Z,102069.41
